sensor_id;sensor_type;location;lat;lon;timestamp;P1;durP1;ratioP1;P2;durP2;ratioP2
42186;SDS011;27858;51.414;0.018;2023-02-11T00:01:04;5.63;;;3.50;;
42186;SDS011;27858;51.414;0.018;2023-02-11T00:03:35;7.20;;;3.85;;
42186;SDS011;27858;51.414;0.018;2023-02-11T00:06:04;7.20;;;3.38;;
42186;SDS011;27858;51.414;0.018;2023-02-11T00:08:34;6.90;;;3.60;;
42186;SDS011;27858;51.414;0.018;2023-02-11T00:11:01;4.38;;;3.47;;
42186;SDS011;27858;51.414;0.018;2023-02-11T00:13:28;8.13;;;3.10;;
42186;SDS011;27858;51.414;0.018;2023-02-11T00:15:55;6.38;;;3.05;;
42186;SDS011;27858;51.414;0.018;2023-02-11T00:18:22;7.05;;;4.22;;
42186;SDS011;27858;51.414;0.018;2023-02-11T00:20:49;5.97;;;3.67;;
42186;SDS011;27858;51.414;0.018;2023-02-11T00:23:16;9.13;;;3.03;;
42186;SDS011;27858;51.414;0.018;2023-02-11T00:25:43;5.65;;;3.65;;
42186;SDS011;27858;51.414;0.018;2023-02-11T00:28:11;6.47;;;3.65;;
42186;SDS011;27858;51.414;0.018;2023-02-11T00:30:38;11.80;;;4.13;;
42186;SDS011;27858;51.414;0.018;2023-02-11T00:33:06;4.68;;;3.25;;
42186;SDS011;27858;51.414;0.018;2023-02-11T00:35:32;6.65;;;3.78;;
42186;SDS011;27858;51.414;0.018;2023-02-11T00:38:03;7.97;;;3.92;;
42186;SDS011;27858;51.414;0.018;2023-02-11T00:40:30;6.20;;;3.53;;
42186;SDS011;27858;51.414;0.018;2023-02-11T00:42:57;8.20;;;3.58;;
42186;SDS011;27858;51.414;0.018;2023-02-11T00:45:23;6.97;;;4.10;;
42186;SDS011;27858;51.414;0.018;2023-02-11T00:47:50;4.75;;;3.35;;
42186;SDS011;27858;51.414;0.018;2023-02-11T00:50:17;6.70;;;4.05;;
42186;SDS011;27858;51.414;0.018;2023-02-11T00:52:44;5.32;;;3.60;;
42186;SDS011;27858;51.414;0.018;2023-02-11T00:55:10;4.90;;;4.07;;
42186;SDS011;27858;51.414;0.018;2023-02-11T00:57:37;6.95;;;3.65;;
42186;SDS011;27858;51.414;0.018;2023-02-11T01:00:04;6.05;;;4.18;;
42186;SDS011;27858;51.414;0.018;2023-02-11T01:02:32;6.05;;;3.80;;
42186;SDS011;27858;51.414;0.018;2023-02-11T01:04:59;5.93;;;4.22;;
42186;SDS011;27858;51.414;0.018;2023-02-11T01:07:27;6.18;;;3.95;;
42186;SDS011;27858;51.414;0.018;2023-02-11T01:09:54;5.63;;;4.15;;
42186;SDS011;27858;51.414;0.018;2023-02-11T01:12:21;6.47;;;3.60;;
42186;SDS011;27858;51.414;0.018;2023-02-11T01:14:48;5.82;;;4.15;;
42186;SDS011;27858;51.414;0.018;2023-02-11T01:17:15;5.05;;;3.72;;
42186;SDS011;27858;51.414;0.018;2023-02-11T01:19:42;6.05;;;4.03;;
42186;SDS011;27858;51.414;0.018;2023-02-11T01:22:08;4.75;;;3.58;;
42186;SDS011;27858;51.414;0.018;2023-02-11T01:24:35;6.88;;;3.55;;
42186;SDS011;27858;51.414;0.018;2023-02-11T01:27:02;6.90;;;3.85;;
42186;SDS011;27858;51.414;0.018;2023-02-11T01:29:29;12.93;;;4.97;;
42186;SDS011;27858;51.414;0.018;2023-02-11T01:31:55;6.28;;;3.85;;
42186;SDS011;27858;51.414;0.018;2023-02-11T01:34:22;6.35;;;4.22;;
42186;SDS011;27858;51.414;0.018;2023-02-11T01:36:49;6.78;;;4.82;;
42186;SDS011;27858;51.414;0.018;2023-02-11T01:39:16;5.50;;;3.90;;
42186;SDS011;27858;51.414;0.018;2023-02-11T01:41:42;8.48;;;5.15;;
42186;SDS011;27858;51.414;0.018;2023-02-11T01:47:04;6.75;;;4.30;;
42186;SDS011;27858;51.414;0.018;2023-02-11T01:49:33;7.15;;;4.43;;
42186;SDS011;27858;51.414;0.018;2023-02-11T01:54:46;8.13;;;4.32;;
42186;SDS011;27858;51.414;0.018;2023-02-11T01:57:34;7.97;;;5.68;;
42186;SDS011;27858;51.414;0.018;2023-02-11T02:02:47;6.00;;;3.78;;
42186;SDS011;27858;51.414;0.018;2023-02-11T02:10:50;7.90;;;4.68;;
42186;SDS011;27858;51.414;0.018;2023-02-11T02:13:21;8.50;;;4.93;;
42186;SDS011;27858;51.414;0.018;2023-02-11T02:15:49;10.20;;;5.03;;
42186;SDS011;27858;51.414;0.018;2023-02-11T02:18:42;11.43;;;5.90;;
42186;SDS011;27858;51.414;0.018;2023-02-11T02:26:34;8.32;;;4.75;;
42186;SDS011;27858;51.414;0.018;2023-02-11T02:40:19;8.10;;;5.07;;
42186;SDS011;27858;51.414;0.018;2023-02-11T02:42:52;6.55;;;4.25;;
42186;SDS011;27858;51.414;0.018;2023-02-11T02:45:20;5.55;;;4.10;;
42186;SDS011;27858;51.414;0.018;2023-02-11T02:47:46;7.15;;;4.40;;
42186;SDS011;27858;51.414;0.018;2023-02-11T02:50:14;6.63;;;4.95;;
42186;SDS011;27858;51.414;0.018;2023-02-11T02:52:58;6.68;;;4.97;;
42186;SDS011;27858;51.414;0.018;2023-02-11T02:55:44;7.25;;;4.53;;
42186;SDS011;27858;51.414;0.018;2023-02-11T03:03:47;8.98;;;4.80;;
42186;SDS011;27858;51.414;0.018;2023-02-11T03:06:37;8.88;;;5.53;;
42186;SDS011;27858;51.414;0.018;2023-02-11T03:09:27;7.43;;;4.70;;
42186;SDS011;27858;51.414;0.018;2023-02-11T03:11:59;8.05;;;4.78;;
42186;SDS011;27858;51.414;0.018;2023-02-11T03:14:27;12.68;;;4.82;;
42186;SDS011;27858;51.414;0.018;2023-02-11T03:16:56;8.00;;;4.72;;
42186;SDS011;27858;51.414;0.018;2023-02-11T03:19:28;8.38;;;5.03;;
42186;SDS011;27858;51.414;0.018;2023-02-11T03:21:59;8.05;;;4.65;;
42186;SDS011;27858;51.414;0.018;2023-02-11T03:24:32;7.03;;;4.68;;
42186;SDS011;27858;51.414;0.018;2023-02-11T03:27:09;6.88;;;4.78;;
42186;SDS011;27858;51.414;0.018;2023-02-11T03:29:48;6.45;;;5.25;;
42186;SDS011;27858;51.414;0.018;2023-02-11T03:32:24;9.15;;;5.07;;
42186;SDS011;27858;51.414;0.018;2023-02-11T03:34:56;10.18;;;5.32;;
42186;SDS011;27858;51.414;0.018;2023-02-11T03:37:27;9.20;;;5.40;;
42186;SDS011;27858;51.414;0.018;2023-02-11T03:40:07;7.65;;;4.88;;
42186;SDS011;27858;51.414;0.018;2023-02-11T03:42:39;8.23;;;5.40;;
42186;SDS011;27858;51.414;0.018;2023-02-11T03:45:27;11.50;;;5.70;;
42186;SDS011;27858;51.414;0.018;2023-02-11T03:47:58;6.78;;;5.20;;
42186;SDS011;27858;51.414;0.018;2023-02-11T03:50:26;7.05;;;4.88;;
42186;SDS011;27858;51.414;0.018;2023-02-11T03:52:57;8.35;;;4.75;;
42186;SDS011;27858;51.414;0.018;2023-02-11T03:55:27;8.05;;;5.20;;
42186;SDS011;27858;51.414;0.018;2023-02-11T03:57:55;8.88;;;5.80;;
42186;SDS011;27858;51.414;0.018;2023-02-11T04:00:32;8.00;;;5.25;;
42186;SDS011;27858;51.414;0.018;2023-02-11T04:03:02;7.97;;;6.35;;
42186;SDS011;27858;51.414;0.018;2023-02-11T04:05:29;9.98;;;5.30;;
42186;SDS011;27858;51.414;0.018;2023-02-11T04:07:56;8.23;;;5.07;;
42186;SDS011;27858;51.414;0.018;2023-02-11T04:10:23;8.05;;;5.07;;
42186;SDS011;27858;51.414;0.018;2023-02-11T04:12:50;8.07;;;5.90;;
42186;SDS011;27858;51.414;0.018;2023-02-11T04:15:17;8.23;;;5.28;;
42186;SDS011;27858;51.414;0.018;2023-02-11T04:17:44;7.20;;;5.22;;
42186;SDS011;27858;51.414;0.018;2023-02-11T04:20:10;8.25;;;5.45;;
42186;SDS011;27858;51.414;0.018;2023-02-11T04:22:37;11.38;;;4.60;;
42186;SDS011;27858;51.414;0.018;2023-02-11T04:25:05;7.60;;;4.72;;
42186;SDS011;27858;51.414;0.018;2023-02-11T04:27:32;7.07;;;4.80;;
42186;SDS011;27858;51.414;0.018;2023-02-11T04:29:59;7.40;;;5.45;;
42186;SDS011;27858;51.414;0.018;2023-02-11T04:32:25;8.40;;;3.88;;
42186;SDS011;27858;51.414;0.018;2023-02-11T04:34:52;7.38;;;4.20;;
42186;SDS011;27858;51.414;0.018;2023-02-11T04:37:20;8.63;;;4.90;;
42186;SDS011;27858;51.414;0.018;2023-02-11T04:39:46;7.32;;;4.25;;
42186;SDS011;27858;51.414;0.018;2023-02-11T04:42:13;10.05;;;5.45;;
42186;SDS011;27858;51.414;0.018;2023-02-11T04:44:40;8.25;;;5.13;;
42186;SDS011;27858;51.414;0.018;2023-02-11T04:47:06;7.43;;;4.32;;
42186;SDS011;27858;51.414;0.018;2023-02-11T04:49:33;7.20;;;5.22;;
42186;SDS011;27858;51.414;0.018;2023-02-11T04:52:00;6.68;;;4.70;;
42186;SDS011;27858;51.414;0.018;2023-02-11T04:54:27;5.65;;;3.92;;
42186;SDS011;27858;51.414;0.018;2023-02-11T04:56:54;7.57;;;4.78;;
42186;SDS011;27858;51.414;0.018;2023-02-11T04:59:20;8.07;;;4.13;;
42186;SDS011;27858;51.414;0.018;2023-02-11T05:01:47;7.60;;;4.65;;
42186;SDS011;27858;51.414;0.018;2023-02-11T05:04:15;7.07;;;5.07;;
42186;SDS011;27858;51.414;0.018;2023-02-11T05:06:42;7.30;;;4.32;;
42186;SDS011;27858;51.414;0.018;2023-02-11T05:09:12;9.30;;;4.85;;
42186;SDS011;27858;51.414;0.018;2023-02-11T05:11:39;5.70;;;3.92;;
42186;SDS011;27858;51.414;0.018;2023-02-11T05:14:06;7.70;;;4.93;;
42186;SDS011;27858;51.414;0.018;2023-02-11T05:16:33;6.88;;;3.88;;
42186;SDS011;27858;51.414;0.018;2023-02-11T05:19:00;8.75;;;4.25;;
42186;SDS011;27858;51.414;0.018;2023-02-11T05:21:27;6.07;;;3.92;;
42186;SDS011;27858;51.414;0.018;2023-02-11T05:23:53;7.25;;;3.78;;
42186;SDS011;27858;51.414;0.018;2023-02-11T05:26:20;3.80;;;2.65;;
42186;SDS011;27858;51.414;0.018;2023-02-11T05:28:47;5.82;;;2.47;;
42186;SDS011;27858;51.414;0.018;2023-02-11T05:31:14;8.18;;;3.63;;
42186;SDS011;27858;51.414;0.018;2023-02-11T05:33:42;5.35;;;3.78;;
42186;SDS011;27858;51.414;0.018;2023-02-11T05:36:10;7.82;;;4.00;;
42186;SDS011;27858;51.414;0.018;2023-02-11T05:38:38;7.45;;;4.13;;
42186;SDS011;27858;51.414;0.018;2023-02-11T05:41:05;6.40;;;3.90;;
42186;SDS011;27858;51.414;0.018;2023-02-11T05:43:32;6.38;;;3.35;;
42186;SDS011;27858;51.414;0.018;2023-02-11T05:46:00;5.85;;;3.80;;
42186;SDS011;27858;51.414;0.018;2023-02-11T05:48:30;8.88;;;3.95;;
42186;SDS011;27858;51.414;0.018;2023-02-11T05:50:57;9.40;;;4.13;;
42186;SDS011;27858;51.414;0.018;2023-02-11T05:53:24;5.57;;;3.20;;
42186;SDS011;27858;51.414;0.018;2023-02-11T05:55:51;8.25;;;2.85;;
42186;SDS011;27858;51.414;0.018;2023-02-11T05:58:18;6.30;;;3.40;;
42186;SDS011;27858;51.414;0.018;2023-02-11T06:00:45;7.25;;;3.83;;
42186;SDS011;27858;51.414;0.018;2023-02-11T06:03:11;5.95;;;3.15;;
42186;SDS011;27858;51.414;0.018;2023-02-11T06:05:38;5.22;;;3.83;;
42186;SDS011;27858;51.414;0.018;2023-02-11T06:08:05;6.57;;;2.92;;
42186;SDS011;27858;51.414;0.018;2023-02-11T06:10:32;6.40;;;3.45;;
42186;SDS011;27858;51.414;0.018;2023-02-11T06:12:59;7.10;;;3.50;;
42186;SDS011;27858;51.414;0.018;2023-02-11T06:15:27;4.88;;;3.50;;
42186;SDS011;27858;51.414;0.018;2023-02-11T06:17:54;5.10;;;3.05;;
42186;SDS011;27858;51.414;0.018;2023-02-11T06:20:21;3.28;;;2.35;;
42186;SDS011;27858;51.414;0.018;2023-02-11T06:22:48;6.45;;;3.38;;
42186;SDS011;27858;51.414;0.018;2023-02-11T06:25:14;6.65;;;4.38;;
42186;SDS011;27858;51.414;0.018;2023-02-11T06:27:41;14.10;;;4.10;;
42186;SDS011;27858;51.414;0.018;2023-02-11T06:30:08;5.97;;;3.78;;
42186;SDS011;27858;51.414;0.018;2023-02-11T06:32:35;7.00;;;3.28;;
42186;SDS011;27858;51.414;0.018;2023-02-11T06:35:11;6.35;;;3.15;;
42186;SDS011;27858;51.414;0.018;2023-02-11T06:37:39;11.32;;;3.42;;
42186;SDS011;27858;51.414;0.018;2023-02-11T06:40:07;7.78;;;3.83;;
42186;SDS011;27858;51.414;0.018;2023-02-11T06:42:34;7.40;;;3.25;;
42186;SDS011;27858;51.414;0.018;2023-02-11T06:45:03;12.75;;;3.72;;
42186;SDS011;27858;51.414;0.018;2023-02-11T06:47:31;9.45;;;4.85;;
42186;SDS011;27858;51.414;0.018;2023-02-11T06:49:58;5.15;;;2.70;;
42186;SDS011;27858;51.414;0.018;2023-02-11T06:52:25;4.63;;;3.13;;
42186;SDS011;27858;51.414;0.018;2023-02-11T06:54:52;13.82;;;3.28;;
42186;SDS011;27858;51.414;0.018;2023-02-11T06:57:18;7.68;;;3.83;;
42186;SDS011;27858;51.414;0.018;2023-02-11T06:59:45;4.82;;;2.90;;
42186;SDS011;27858;51.414;0.018;2023-02-11T07:02:12;6.13;;;4.35;;
42186;SDS011;27858;51.414;0.018;2023-02-11T07:04:39;5.00;;;2.60;;
42186;SDS011;27858;51.414;0.018;2023-02-11T07:07:06;6.28;;;4.20;;
42186;SDS011;27858;51.414;0.018;2023-02-11T07:09:32;5.50;;;2.70;;
42186;SDS011;27858;51.414;0.018;2023-02-11T07:11:59;5.75;;;3.83;;
42186;SDS011;27858;51.414;0.018;2023-02-11T07:14:26;8.00;;;3.22;;
42186;SDS011;27858;51.414;0.018;2023-02-11T07:16:53;9.00;;;3.72;;
42186;SDS011;27858;51.414;0.018;2023-02-11T07:19:19;6.88;;;3.40;;
42186;SDS011;27858;51.414;0.018;2023-02-11T07:21:46;5.63;;;3.63;;
42186;SDS011;27858;51.414;0.018;2023-02-11T07:24:13;17.83;;;2.90;;
42186;SDS011;27858;51.414;0.018;2023-02-11T07:26:40;6.70;;;3.63;;
42186;SDS011;27858;51.414;0.018;2023-02-11T07:29:07;5.50;;;2.90;;
42186;SDS011;27858;51.414;0.018;2023-02-11T07:31:34;5.07;;;2.47;;
42186;SDS011;27858;51.414;0.018;2023-02-11T07:34:01;5.85;;;3.67;;
42186;SDS011;27858;51.414;0.018;2023-02-11T07:36:28;6.90;;;2.63;;
42186;SDS011;27858;51.414;0.018;2023-02-11T07:38:57;5.80;;;2.63;;
42186;SDS011;27858;51.414;0.018;2023-02-11T07:41:25;6.07;;;2.92;;
42186;SDS011;27858;51.414;0.018;2023-02-11T07:43:52;4.65;;;2.45;;
42186;SDS011;27858;51.414;0.018;2023-02-11T07:46:20;5.80;;;3.20;;
42186;SDS011;27858;51.414;0.018;2023-02-11T07:48:49;10.35;;;3.55;;
42186;SDS011;27858;51.414;0.018;2023-02-11T07:51:23;6.30;;;2.45;;
42186;SDS011;27858;51.414;0.018;2023-02-11T07:53:51;6.25;;;3.22;;
42186;SDS011;27858;51.414;0.018;2023-02-11T07:56:19;4.40;;;2.67;;
42186;SDS011;27858;51.414;0.018;2023-02-11T07:58:47;5.57;;;2.40;;
42186;SDS011;27858;51.414;0.018;2023-02-11T08:01:19;4.90;;;2.33;;
42186;SDS011;27858;51.414;0.018;2023-02-11T08:03:47;7.90;;;2.85;;
42186;SDS011;27858;51.414;0.018;2023-02-11T08:06:15;5.55;;;1.90;;
42186;SDS011;27858;51.414;0.018;2023-02-11T08:08:43;3.95;;;2.90;;
42186;SDS011;27858;51.414;0.018;2023-02-11T08:11:17;4.22;;;2.35;;
42186;SDS011;27858;51.414;0.018;2023-02-11T08:13:49;4.75;;;2.35;;
42186;SDS011;27858;51.414;0.018;2023-02-11T08:18:48;3.45;;;2.08;;
42186;SDS011;27858;51.414;0.018;2023-02-11T08:21:16;4.57;;;2.50;;
42186;SDS011;27858;51.414;0.018;2023-02-11T08:23:44;4.10;;;1.88;;
42186;SDS011;27858;51.414;0.018;2023-02-11T08:26:13;5.63;;;2.22;;
42186;SDS011;27858;51.414;0.018;2023-02-11T08:28:41;2.97;;;2.05;;
42186;SDS011;27858;51.414;0.018;2023-02-11T08:31:11;3.38;;;2.25;;
42186;SDS011;27858;51.414;0.018;2023-02-11T08:33:39;4.00;;;2.40;;
42186;SDS011;27858;51.414;0.018;2023-02-11T08:36:07;2.67;;;2.10;;
42186;SDS011;27858;51.414;0.018;2023-02-11T08:41:06;3.47;;;1.52;;
42186;SDS011;27858;51.414;0.018;2023-02-11T08:43:34;5.00;;;2.35;;
42186;SDS011;27858;51.414;0.018;2023-02-11T08:46:02;2.63;;;1.90;;
42186;SDS011;27858;51.414;0.018;2023-02-11T08:48:29;1.95;;;1.55;;
42186;SDS011;27858;51.414;0.018;2023-02-11T08:50:56;3.92;;;1.70;;
42186;SDS011;27858;51.414;0.018;2023-02-11T08:53:23;2.67;;;1.25;;
42186;SDS011;27858;51.414;0.018;2023-02-11T08:55:50;2.33;;;1.23;;
42186;SDS011;27858;51.414;0.018;2023-02-11T08:58:19;4.47;;;1.83;;
42186;SDS011;27858;51.414;0.018;2023-02-11T09:00:47;2.42;;;1.65;;
42186;SDS011;27858;51.414;0.018;2023-02-11T09:03:15;5.82;;;2.00;;
42186;SDS011;27858;51.414;0.018;2023-02-11T09:05:42;2.50;;;1.00;;
42186;SDS011;27858;51.414;0.018;2023-02-11T09:08:09;4.40;;;1.92;;
42186;SDS011;27858;51.414;0.018;2023-02-11T09:10:37;2.75;;;1.42;;
42186;SDS011;27858;51.414;0.018;2023-02-11T09:13:04;4.05;;;1.55;;
42186;SDS011;27858;51.414;0.018;2023-02-11T09:15:32;2.97;;;1.15;;
42186;SDS011;27858;51.414;0.018;2023-02-11T09:17:59;1.77;;;1.00;;
42186;SDS011;27858;51.414;0.018;2023-02-11T09:20:26;3.53;;;1.75;;
42186;SDS011;27858;51.414;0.018;2023-02-11T09:22:53;5.18;;;1.65;;
42186;SDS011;27858;51.414;0.018;2023-02-11T09:25:22;2.05;;;1.17;;
42186;SDS011;27858;51.414;0.018;2023-02-11T09:27:48;3.80;;;1.10;;
42186;SDS011;27858;51.414;0.018;2023-02-11T09:30:16;4.53;;;1.92;;
42186;SDS011;27858;51.414;0.018;2023-02-11T09:32:43;4.57;;;1.98;;
42186;SDS011;27858;51.414;0.018;2023-02-11T09:35:10;1.75;;;1.52;;
42186;SDS011;27858;51.414;0.018;2023-02-11T09:37:37;2.05;;;1.35;;
42186;SDS011;27858;51.414;0.018;2023-02-11T09:40:03;2.72;;;1.70;;
42186;SDS011;27858;51.414;0.018;2023-02-11T09:45:04;2.15;;;1.55;;
42186;SDS011;27858;51.414;0.018;2023-02-11T09:47:41;2.42;;;1.27;;
42186;SDS011;27858;51.414;0.018;2023-02-11T09:50:32;3.05;;;1.38;;
42186;SDS011;27858;51.414;0.018;2023-02-11T09:53:22;2.08;;;1.38;;
42186;SDS011;27858;51.414;0.018;2023-02-11T09:55:52;4.30;;;1.30;;
42186;SDS011;27858;51.414;0.018;2023-02-11T09:58:23;3.10;;;2.30;;
42186;SDS011;27858;51.414;0.018;2023-02-11T10:16:56;2.65;;;1.23;;
42186;SDS011;27858;51.414;0.018;2023-02-11T10:22:24;4.88;;;1.80;;
42186;SDS011;27858;51.414;0.018;2023-02-11T10:24:56;3.38;;;1.27;;
42186;SDS011;27858;51.414;0.018;2023-02-11T10:27:34;6.05;;;2.10;;
42186;SDS011;27858;51.414;0.018;2023-02-11T10:30:17;3.33;;;1.52;;
42186;SDS011;27858;51.414;0.018;2023-02-11T10:35:25;4.13;;;1.10;;
42186;SDS011;27858;51.414;0.018;2023-02-11T10:37:53;2.90;;;1.45;;
42186;SDS011;27858;51.414;0.018;2023-02-11T10:40:22;3.58;;;2.13;;
42186;SDS011;27858;51.414;0.018;2023-02-11T10:42:55;3.92;;;1.27;;
42186;SDS011;27858;51.414;0.018;2023-02-11T10:45:32;2.75;;;1.27;;
42186;SDS011;27858;51.414;0.018;2023-02-11T10:53:39;5.00;;;1.60;;
42186;SDS011;27858;51.414;0.018;2023-02-11T10:56:06;4.65;;;1.00;;
42186;SDS011;27858;51.414;0.018;2023-02-11T10:58:44;2.67;;;1.60;;
42186;SDS011;27858;51.414;0.018;2023-02-11T11:01:20;3.05;;;0.70;;
42186;SDS011;27858;51.414;0.018;2023-02-11T11:03:50;2.60;;;0.88;;
42186;SDS011;27858;51.414;0.018;2023-02-11T11:06:28;2.30;;;0.80;;
42186;SDS011;27858;51.414;0.018;2023-02-11T11:08:57;3.80;;;1.60;;
42186;SDS011;27858;51.414;0.018;2023-02-11T11:11:24;3.30;;;1.25;;
42186;SDS011;27858;51.414;0.018;2023-02-11T11:16:20;5.63;;;1.40;;
42186;SDS011;27858;51.414;0.018;2023-02-11T11:19:11;2.30;;;0.70;;
42186;SDS011;27858;51.414;0.018;2023-02-11T11:24:43;3.22;;;1.25;;
42186;SDS011;27858;51.414;0.018;2023-02-11T11:27:16;3.63;;;1.35;;
42186;SDS011;27858;51.414;0.018;2023-02-11T11:29:51;3.80;;;1.20;;
42186;SDS011;27858;51.414;0.018;2023-02-11T11:32:30;6.28;;;1.75;;
42186;SDS011;27858;51.414;0.018;2023-02-11T11:34:59;3.53;;;1.23;;
42186;SDS011;27858;51.414;0.018;2023-02-11T11:37:29;4.30;;;1.13;;
42186;SDS011;27858;51.414;0.018;2023-02-11T11:45:58;1.05;;;0.95;;
42186;SDS011;27858;51.414;0.018;2023-02-11T11:48:36;2.17;;;1.50;;
42186;SDS011;27858;51.414;0.018;2023-02-11T11:51:06;2.25;;;1.15;;
42186;SDS011;27858;51.414;0.018;2023-02-11T11:53:37;1.75;;;1.10;;
42186;SDS011;27858;51.414;0.018;2023-02-11T11:58:37;1.17;;;0.75;;
42186;SDS011;27858;51.414;0.018;2023-02-11T12:06:57;4.90;;;1.27;;
42186;SDS011;27858;51.414;0.018;2023-02-11T12:17:42;2.17;;;0.93;;
42186;SDS011;27858;51.414;0.018;2023-02-11T12:23:02;3.53;;;1.40;;
42186;SDS011;27858;51.414;0.018;2023-02-11T12:25:59;7.82;;;2.13;;
42186;SDS011;27858;51.414;0.018;2023-02-11T12:28:38;5.68;;;1.65;;
42186;SDS011;27858;51.414;0.018;2023-02-11T12:31:35;7.93;;;2.30;;
42186;SDS011;27858;51.414;0.018;2023-02-11T12:48:17;7.43;;;1.60;;
42186;SDS011;27858;51.414;0.018;2023-02-11T12:56:21;2.70;;;1.70;;
42186;SDS011;27858;51.414;0.018;2023-02-11T12:58:53;5.88;;;1.52;;
42186;SDS011;27858;51.414;0.018;2023-02-11T13:01:34;6.55;;;2.13;;
42186;SDS011;27858;51.414;0.018;2023-02-11T13:04:05;5.50;;;1.40;;
42186;SDS011;27858;51.414;0.018;2023-02-11T13:06:59;3.08;;;1.33;;
42186;SDS011;27858;51.414;0.018;2023-02-11T13:09:34;3.85;;;0.95;;
42186;SDS011;27858;51.414;0.018;2023-02-11T13:12:08;4.55;;;1.63;;
42186;SDS011;27858;51.414;0.018;2023-02-11T13:14:58;4.05;;;1.38;;
42186;SDS011;27858;51.414;0.018;2023-02-11T13:17:35;7.07;;;2.10;;
42186;SDS011;27858;51.414;0.018;2023-02-11T13:20:19;8.30;;;1.55;;
42186;SDS011;27858;51.414;0.018;2023-02-11T13:23:22;3.92;;;1.10;;
42186;SDS011;27858;51.414;0.018;2023-02-11T13:25:58;4.40;;;1.15;;
42186;SDS011;27858;51.414;0.018;2023-02-11T13:31:29;6.95;;;1.45;;
42186;SDS011;27858;51.414;0.018;2023-02-11T13:33:57;16.67;;;2.58;;
42186;SDS011;27858;51.414;0.018;2023-02-11T13:36:24;14.70;;;1.98;;
42186;SDS011;27858;51.414;0.018;2023-02-11T13:39:03;5.85;;;1.33;;
42186;SDS011;27858;51.414;0.018;2023-02-11T13:41:33;3.60;;;1.50;;
42186;SDS011;27858;51.414;0.018;2023-02-11T13:46:47;8.23;;;1.80;;
42186;SDS011;27858;51.414;0.018;2023-02-11T13:49:19;10.73;;;1.92;;
42186;SDS011;27858;51.414;0.018;2023-02-11T13:51:49;6.15;;;2.00;;
42186;SDS011;27858;51.414;0.018;2023-02-11T13:54:19;6.78;;;1.77;;
42186;SDS011;27858;51.414;0.018;2023-02-11T13:57:14;11.27;;;1.90;;
42186;SDS011;27858;51.414;0.018;2023-02-11T14:10:56;6.75;;;2.03;;
42186;SDS011;27858;51.414;0.018;2023-02-11T14:21:34;4.82;;;1.70;;
42186;SDS011;27858;51.414;0.018;2023-02-11T14:29:14;9.27;;;2.50;;
42186;SDS011;27858;51.414;0.018;2023-02-11T14:45:09;4.95;;;1.58;;
42186;SDS011;27858;51.414;0.018;2023-02-11T14:47:49;8.13;;;1.77;;
42186;SDS011;27858;51.414;0.018;2023-02-11T14:50:21;12.98;;;2.17;;
42186;SDS011;27858;51.414;0.018;2023-02-11T14:52:52;14.07;;;2.03;;
42186;SDS011;27858;51.414;0.018;2023-02-11T14:55:26;19.02;;;4.20;;
42186;SDS011;27858;51.414;0.018;2023-02-11T14:58:05;8.15;;;1.75;;
42186;SDS011;27858;51.414;0.018;2023-02-11T15:00:36;3.67;;;1.90;;
42186;SDS011;27858;51.414;0.018;2023-02-11T15:03:31;16.05;;;2.80;;
42186;SDS011;27858;51.414;0.018;2023-02-11T15:06:07;8.25;;;2.80;;
42186;SDS011;27858;51.414;0.018;2023-02-11T15:08:49;8.88;;;2.42;;
42186;SDS011;27858;51.414;0.018;2023-02-11T15:11:30;13.65;;;2.40;;
42186;SDS011;27858;51.414;0.018;2023-02-11T15:14:06;6.00;;;2.53;;
42186;SDS011;27858;51.414;0.018;2023-02-11T15:16:38;20.00;;;3.15;;
42186;SDS011;27858;51.414;0.018;2023-02-11T15:21:42;2.65;;;1.55;;
42186;SDS011;27858;51.414;0.018;2023-02-11T15:24:21;2.75;;;1.48;;
42186;SDS011;27858;51.414;0.018;2023-02-11T15:27:03;8.02;;;2.03;;
42186;SDS011;27858;51.414;0.018;2023-02-11T15:29:40;4.15;;;2.30;;
42186;SDS011;27858;51.414;0.018;2023-02-11T15:32:16;5.50;;;2.38;;
42186;SDS011;27858;51.414;0.018;2023-02-11T15:34:45;4.57;;;2.25;;
42186;SDS011;27858;51.414;0.018;2023-02-11T15:37:21;3.03;;;1.38;;
42186;SDS011;27858;51.414;0.018;2023-02-11T15:39:52;7.38;;;2.72;;
42186;SDS011;27858;51.414;0.018;2023-02-11T15:42:23;2.60;;;1.40;;
42186;SDS011;27858;51.414;0.018;2023-02-11T15:47:39;3.17;;;1.70;;
42186;SDS011;27858;51.414;0.018;2023-02-11T15:50:25;5.75;;;1.95;;
42186;SDS011;27858;51.414;0.018;2023-02-11T15:52:53;2.40;;;1.85;;
42186;SDS011;27858;51.414;0.018;2023-02-11T15:55:22;10.00;;;1.98;;
42186;SDS011;27858;51.414;0.018;2023-02-11T15:57:52;9.45;;;3.33;;
42186;SDS011;27858;51.414;0.018;2023-02-11T16:00:28;3.78;;;1.80;;
42186;SDS011;27858;51.414;0.018;2023-02-11T16:03:01;6.05;;;2.65;;
42186;SDS011;27858;51.414;0.018;2023-02-11T16:07:59;10.60;;;2.67;;
42186;SDS011;27858;51.414;0.018;2023-02-11T16:10:37;7.40;;;2.58;;
42186;SDS011;27858;51.414;0.018;2023-02-11T16:18:11;5.93;;;2.28;;
42186;SDS011;27858;51.414;0.018;2023-02-11T16:20:48;16.58;;;3.00;;
42186;SDS011;27858;51.414;0.018;2023-02-11T16:23:21;6.35;;;3.10;;
42186;SDS011;27858;51.414;0.018;2023-02-11T16:25:52;4.30;;;2.33;;
42186;SDS011;27858;51.414;0.018;2023-02-11T16:28:30;17.10;;;3.20;;
42186;SDS011;27858;51.414;0.018;2023-02-11T16:30:58;5.50;;;2.67;;
42186;SDS011;27858;51.414;0.018;2023-02-11T16:33:27;2.67;;;1.90;;
42186;SDS011;27858;51.414;0.018;2023-02-11T16:35:55;9.07;;;2.35;;
42186;SDS011;27858;51.414;0.018;2023-02-11T16:38:23;4.55;;;2.00;;
42186;SDS011;27858;51.414;0.018;2023-02-11T16:40:49;10.52;;;2.97;;
42186;SDS011;27858;51.414;0.018;2023-02-11T16:43:18;7.35;;;2.20;;
42186;SDS011;27858;51.414;0.018;2023-02-11T16:45:45;10.38;;;3.53;;
42186;SDS011;27858;51.414;0.018;2023-02-11T16:48:14;11.63;;;4.40;;
42186;SDS011;27858;51.414;0.018;2023-02-11T16:50:44;12.85;;;4.05;;
42186;SDS011;27858;51.414;0.018;2023-02-11T16:53:18;28.80;;;8.55;;
42186;SDS011;27858;51.414;0.018;2023-02-11T16:55:50;6.07;;;2.33;;
42186;SDS011;27858;51.414;0.018;2023-02-11T16:58:20;10.00;;;3.47;;
42186;SDS011;27858;51.414;0.018;2023-02-11T17:00:47;3.83;;;2.38;;
42186;SDS011;27858;51.414;0.018;2023-02-11T17:03:18;7.32;;;3.03;;
42186;SDS011;27858;51.414;0.018;2023-02-11T17:05:48;10.60;;;3.70;;
42186;SDS011;27858;51.414;0.018;2023-02-11T17:08:20;12.65;;;6.57;;
42186;SDS011;27858;51.414;0.018;2023-02-11T17:10:47;11.65;;;6.55;;
42186;SDS011;27858;51.414;0.018;2023-02-11T17:13:15;11.88;;;5.47;;
42186;SDS011;27858;51.414;0.018;2023-02-11T17:15:42;13.95;;;6.50;;
42186;SDS011;27858;51.414;0.018;2023-02-11T17:18:11;11.13;;;6.72;;
42186;SDS011;27858;51.414;0.018;2023-02-11T17:20:39;10.32;;;7.35;;
42186;SDS011;27858;51.414;0.018;2023-02-11T17:23:06;11.50;;;7.78;;
42186;SDS011;27858;51.414;0.018;2023-02-11T17:25:34;10.32;;;7.07;;
42186;SDS011;27858;51.414;0.018;2023-02-11T17:28:06;14.23;;;6.85;;
42186;SDS011;27858;51.414;0.018;2023-02-11T17:30:33;11.15;;;5.00;;
42186;SDS011;27858;51.414;0.018;2023-02-11T17:33:00;7.13;;;4.07;;
42186;SDS011;27858;51.414;0.018;2023-02-11T17:35:27;9.63;;;4.78;;
42186;SDS011;27858;51.414;0.018;2023-02-11T17:37:54;6.32;;;4.55;;
42186;SDS011;27858;51.414;0.018;2023-02-11T17:40:23;7.60;;;4.25;;
42186;SDS011;27858;51.414;0.018;2023-02-11T17:42:50;7.80;;;4.90;;
42186;SDS011;27858;51.414;0.018;2023-02-11T17:45:17;9.13;;;4.95;;
42186;SDS011;27858;51.414;0.018;2023-02-11T17:47:47;5.90;;;3.90;;
42186;SDS011;27858;51.414;0.018;2023-02-11T17:50:14;3.83;;;2.47;;
42186;SDS011;27858;51.414;0.018;2023-02-11T17:52:41;9.75;;;3.80;;
42186;SDS011;27858;51.414;0.018;2023-02-11T17:55:08;6.60;;;2.92;;
42186;SDS011;27858;51.414;0.018;2023-02-11T17:57:35;5.10;;;2.75;;
42186;SDS011;27858;51.414;0.018;2023-02-11T18:00:03;5.00;;;3.15;;
42186;SDS011;27858;51.414;0.018;2023-02-11T18:02:31;9.85;;;3.40;;